sensor_id;sensor_type;location;lat;lon;timestamp;pressure;altitude;pressure_sealevel;temperature;humidity
21011;BME280;10663;42.714;23.274;2023-07-13T00:01:23;95047.47;;;22.77;65.91
21011;BME280;10663;42.714;23.274;2023-07-13T00:02:54;95044.19;;;22.71;66.62
21011;BME280;10663;42.714;23.274;2023-07-13T00:04:25;95050.44;;;22.84;67.25
21011;BME280;10663;42.714;23.274;2023-07-13T00:05:59;95040.06;;;22.86;66.89
21011;BME280;10663;42.714;23.274;2023-07-13T00:07:30;95040.59;;;23.12;67.21
21011;BME280;10663;42.714;23.274;2023-07-13T00:09:01;95041.81;;;23.03;66.87
21011;BME280;10663;42.714;23.274;2023-07-13T00:10:32;95037.69;;;23.18;66.16
21011;BME280;10663;42.714;23.274;2023-07-13T00:12:03;95037.13;;;23.24;65.90
21011;BME280;10663;42.714;23.274;2023-07-13T00:13:34;95030.94;;;23.36;65.52
21011;BME280;10663;42.714;23.274;2023-07-13T00:15:10;95036.03;;;23.62;65.85
21011;BME280;10663;42.714;23.274;2023-07-13T00:16:42;95037.28;;;22.95;67.11
21011;BME280;10663;42.714;23.274;2023-07-13T00:18:16;95035.00;;;22.52;68.38
21011;BME280;10663;42.714;23.274;2023-07-13T00:19:46;95034.97;;;22.19;70.25
21011;BME280;10663;42.714;23.274;2023-07-13T00:21:17;95032.19;;;22.07;71.16
21011;BME280;10663;42.714;23.274;2023-07-13T00:22:48;95037.53;;;21.86;71.33
21011;BME280;10663;42.714;23.274;2023-07-13T00:24:19;95031.41;;;21.77;72.49
21011;BME280;10663;42.714;23.274;2023-07-13T00:25:53;95030.06;;;21.62;75.30
21011;BME280;10663;42.714;23.274;2023-07-13T00:27:27;95034.88;;;21.56;76.54
21011;BME280;10663;42.714;23.274;2023-07-13T00:29:00;95028.84;;;21.51;77.07
21011;BME280;10663;42.714;23.274;2023-07-13T00:30:30;95035.19;;;21.84;75.85
21011;BME280;10663;42.714;23.274;2023-07-13T00:32:05;95031.94;;;21.70;76.42
21011;BME280;10663;42.714;23.274;2023-07-13T00:33:36;95028.53;;;22.11;74.92
21011;BME280;10663;42.714;23.274;2023-07-13T00:35:07;95022.97;;;22.08;74.37
21011;BME280;10663;42.714;23.274;2023-07-13T00:36:38;95033.94;;;21.82;75.78
21011;BME280;10663;42.714;23.274;2023-07-13T00:38:09;95029.75;;;22.14;75.21
21011;BME280;10663;42.714;23.274;2023-07-13T00:39:40;95025.84;;;22.44;73.07
21011;BME280;10663;42.714;23.274;2023-07-13T00:41:11;95021.75;;;22.59;72.39
21011;BME280;10663;42.714;23.274;2023-07-13T00:42:41;95023.03;;;22.73;72.03
21011;BME280;10663;42.714;23.274;2023-07-13T00:44:15;95024.81;;;23.02;70.90
21011;BME280;10663;42.714;23.274;2023-07-13T00:48:50;95031.78;;;22.91;70.15
21011;BME280;10663;42.714;23.274;2023-07-13T00:50:22;95025.06;;;23.09;69.75
21011;BME280;10663;42.714;23.274;2023-07-13T00:51:57;95022.13;;;23.14;70.28
21011;BME280;10663;42.714;23.274;2023-07-13T00:53:29;95016.13;;;22.85;70.86
21011;BME280;10663;42.714;23.274;2023-07-13T00:55:03;95019.75;;;22.68;71.70
21011;BME280;10663;42.714;23.274;2023-07-13T00:56:34;95011.63;;;22.56;71.59
21011;BME280;10663;42.714;23.274;2023-07-13T00:58:05;95017.91;;;22.27;72.46
21011;BME280;10663;42.714;23.274;2023-07-13T00:59:38;95018.94;;;22.34;73.17
21011;BME280;10663;42.714;23.274;2023-07-13T01:01:11;95018.47;;;22.53;72.29
21011;BME280;10663;42.714;23.274;2023-07-13T01:02:44;95018.13;;;22.88;71.74
21011;BME280;10663;42.714;23.274;2023-07-13T01:04:17;95019.81;;;22.26;73.27
21011;BME280;10663;42.714;23.274;2023-07-13T01:05:49;95015.28;;;22.39;72.35
21011;BME280;10663;42.714;23.274;2023-07-13T01:07:20;95019.56;;;21.98;74.61
21011;BME280;10663;42.714;23.274;2023-07-13T01:08:51;95019.88;;;22.18;74.76
21011;BME280;10663;42.714;23.274;2023-07-13T01:10:23;95016.34;;;22.59;72.61
21011;BME280;10663;42.714;23.274;2023-07-13T01:11:54;95017.84;;;22.68;72.67
21011;BME280;10663;42.714;23.274;2023-07-13T01:13:25;95019.81;;;22.80;71.88
21011;BME280;10663;42.714;23.274;2023-07-13T01:14:57;95024.47;;;22.92;70.86
21011;BME280;10663;42.714;23.274;2023-07-13T01:16:28;95020.88;;;23.00;70.78
21011;BME280;10663;42.714;23.274;2023-07-13T01:18:00;95020.66;;;22.93;70.82
21011;BME280;10663;42.714;23.274;2023-07-13T01:19:38;95013.78;;;23.07;70.45
21011;BME280;10663;42.714;23.274;2023-07-13T01:21:09;95007.72;;;23.10;70.36
21011;BME280;10663;42.714;23.274;2023-07-13T01:22:40;95010.63;;;22.93;69.48
21011;BME280;10663;42.714;23.274;2023-07-13T01:24:11;95012.44;;;23.01;70.82
21011;BME280;10663;42.714;23.274;2023-07-13T01:25:41;95003.13;;;23.11;69.79
21011;BME280;10663;42.714;23.274;2023-07-13T01:27:15;95007.75;;;22.77;70.24
21011;BME280;10663;42.714;23.274;2023-07-13T01:28:46;95009.84;;;22.93;71.20
21011;BME280;10663;42.714;23.274;2023-07-13T01:30:17;95004.56;;;23.08;70.12
21011;BME280;10663;42.714;23.274;2023-07-13T01:31:47;95008.06;;;23.09;70.11
21011;BME280;10663;42.714;23.274;2023-07-13T01:33:18;95006.25;;;23.13;70.30
21011;BME280;10663;42.714;23.274;2023-07-13T01:34:49;95006.38;;;23.29;69.78
21011;BME280;10663;42.714;23.274;2023-07-13T01:36:21;95005.72;;;23.20;68.54
21011;BME280;10663;42.714;23.274;2023-07-13T01:37:52;95003.66;;;23.17;68.88
21011;BME280;10663;42.714;23.274;2023-07-13T01:39:23;95002.66;;;23.09;69.31
21011;BME280;10663;42.714;23.274;2023-07-13T01:40:53;95000.84;;;23.13;68.85
21011;BME280;10663;42.714;23.274;2023-07-13T01:42:24;95004.91;;;23.07;68.26
21011;BME280;10663;42.714;23.274;2023-07-13T01:43:55;95009.16;;;22.84;70.37
21011;BME280;10663;42.714;23.274;2023-07-13T01:45:25;95000.75;;;22.64;69.48
21011;BME280;10663;42.714;23.274;2023-07-13T01:46:56;94997.78;;;22.90;69.55
21011;BME280;10663;42.714;23.274;2023-07-13T01:48:28;95006.38;;;23.17;69.89
21011;BME280;10663;42.714;23.274;2023-07-13T01:49:58;94999.81;;;22.93;69.59
21011;BME280;10663;42.714;23.274;2023-07-13T01:51:29;95006.34;;;23.04;69.41
21011;BME280;10663;42.714;23.274;2023-07-13T01:53:00;95009.56;;;22.86;69.54
21011;BME280;10663;42.714;23.274;2023-07-13T01:54:32;95000.03;;;22.55;71.65
21011;BME280;10663;42.714;23.274;2023-07-13T01:56:04;94996.81;;;22.74;70.51
21011;BME280;10663;42.714;23.274;2023-07-13T01:57:35;95009.25;;;22.87;70.69
21011;BME280;10663;42.714;23.274;2023-07-13T01:59:06;95001.19;;;22.99;70.01
21011;BME280;10663;42.714;23.274;2023-07-13T02:00:36;95000.97;;;23.17;69.74
21011;BME280;10663;42.714;23.274;2023-07-13T02:02:07;95006.59;;;23.11;69.30
21011;BME280;10663;42.714;23.274;2023-07-13T02:03:38;95011.06;;;22.95;69.91
21011;BME280;10663;42.714;23.274;2023-07-13T02:05:09;95013.13;;;23.10;70.09
21011;BME280;10663;42.714;23.274;2023-07-13T02:06:39;95011.91;;;23.20;69.30
21011;BME280;10663;42.714;23.274;2023-07-13T02:08:10;95010.88;;;23.25;68.74
21011;BME280;10663;42.714;23.274;2023-07-13T02:12:43;95013.13;;;23.23;67.90
21011;BME280;10663;42.714;23.274;2023-07-13T02:14:14;95008.06;;;23.21;69.29
21011;BME280;10663;42.714;23.274;2023-07-13T02:15:45;95009.53;;;23.19;69.04
21011;BME280;10663;42.714;23.274;2023-07-13T02:17:16;95007.63;;;23.19;69.06
21011;BME280;10663;42.714;23.274;2023-07-13T02:18:47;95012.00;;;23.24;68.93
21011;BME280;10663;42.714;23.274;2023-07-13T02:20:18;95009.50;;;23.06;68.84
21011;BME280;10663;42.714;23.274;2023-07-13T02:23:19;95010.09;;;23.12;68.91
21011;BME280;10663;42.714;23.274;2023-07-13T02:24:50;95015.41;;;23.21;68.60
21011;BME280;10663;42.714;23.274;2023-07-13T02:26:22;95016.50;;;23.32;68.36
21011;BME280;10663;42.714;23.274;2023-07-13T02:27:53;95025.19;;;23.37;68.00
21011;BME280;10663;42.714;23.274;2023-07-13T02:29:24;95022.59;;;23.17;68.14
21011;BME280;10663;42.714;23.274;2023-07-13T02:30:54;95022.38;;;23.22;68.36
21011;BME280;10663;42.714;23.274;2023-07-13T02:32:25;95021.47;;;23.30;68.17
21011;BME280;10663;42.714;23.274;2023-07-13T02:33:56;95023.72;;;23.28;67.95
21011;BME280;10663;42.714;23.274;2023-07-13T02:35:26;95014.84;;;23.39;68.45
21011;BME280;10663;42.714;23.274;2023-07-13T02:36:57;95018.09;;;23.45;67.79
21011;BME280;10663;42.714;23.274;2023-07-13T02:38:28;95019.69;;;23.46;67.47
21011;BME280;10663;42.714;23.274;2023-07-13T02:39:59;95020.59;;;23.50;67.69
21011;BME280;10663;42.714;23.274;2023-07-13T02:41:30;95017.44;;;23.48;68.03
21011;BME280;10663;42.714;23.274;2023-07-13T02:43:01;95028.47;;;23.43;68.20
21011;BME280;10663;42.714;23.274;2023-07-13T02:44:35;95013.94;;;23.47;68.07
21011;BME280;10663;42.714;23.274;2023-07-13T02:46:06;95020.59;;;23.50;68.14
21011;BME280;10663;42.714;23.274;2023-07-13T02:47:40;95023.97;;;23.47;68.03
21011;BME280;10663;42.714;23.274;2023-07-13T02:49:11;95021.94;;;23.44;67.87
21011;BME280;10663;42.714;23.274;2023-07-13T02:50:43;95018.31;;;23.03;68.64
21011;BME280;10663;42.714;23.274;2023-07-13T02:52:14;95017.94;;;22.93;70.30
21011;BME280;10663;42.714;23.274;2023-07-13T02:53:45;95022.66;;;22.96;69.25
21011;BME280;10663;42.714;23.274;2023-07-13T02:55:15;95019.97;;;23.08;70.03
21011;BME280;10663;42.714;23.274;2023-07-13T02:56:47;95030.22;;;23.14;69.60
21011;BME280;10663;42.714;23.274;2023-07-13T02:58:18;95017.41;;;23.24;69.63
21011;BME280;10663;42.714;23.274;2023-07-13T02:59:49;95028.00;;;23.29;69.24
21011;BME280;10663;42.714;23.274;2023-07-13T03:01:20;95024.72;;;23.23;69.50
21011;BME280;10663;42.714;23.274;2023-07-13T03:02:52;95026.38;;;22.91;69.45
21011;BME280;10663;42.714;23.274;2023-07-13T03:04:23;95027.81;;;22.56;71.30
21011;BME280;10663;42.714;23.274;2023-07-13T03:05:57;95031.09;;;22.40;70.54
21011;BME280;10663;42.714;23.274;2023-07-13T03:07:30;95039.31;;;21.82;73.00
21011;BME280;10663;42.714;23.274;2023-07-13T03:09:02;95032.41;;;22.01;74.54
21011;BME280;10663;42.714;23.274;2023-07-13T03:10:35;95032.91;;;22.36;73.16
21011;BME280;10663;42.714;23.274;2023-07-13T03:12:07;95039.56;;;22.72;72.11
21011;BME280;10663;42.714;23.274;2023-07-13T03:13:38;95037.28;;;22.95;71.10
21011;BME280;10663;42.714;23.274;2023-07-13T03:15:09;95032.91;;;22.57;70.90
21011;BME280;10663;42.714;23.274;2023-07-13T03:16:43;95029.09;;;22.70;71.46
21011;BME280;10663;42.714;23.274;2023-07-13T03:18:14;95036.25;;;22.87;71.50
21011;BME280;10663;42.714;23.274;2023-07-13T03:19:45;95031.44;;;23.05;70.75
21011;BME280;10663;42.714;23.274;2023-07-13T03:21:19;95031.59;;;23.08;70.24
21011;BME280;10663;42.714;23.274;2023-07-13T03:22:50;95032.50;;;23.25;69.87
21011;BME280;10663;42.714;23.274;2023-07-13T03:24:22;95025.25;;;23.04;69.69
21011;BME280;10663;42.714;23.274;2023-07-13T03:27:35;95033.25;;;22.68;71.53
21011;BME280;10663;42.714;23.274;2023-07-13T03:29:06;95038.53;;;22.85;70.68
21011;BME280;10663;42.714;23.274;2023-07-13T03:30:37;95029.38;;;22.77;70.65
21011;BME280;10663;42.714;23.274;2023-07-13T03:32:08;95044.81;;;22.89;70.54
21011;BME280;10663;42.714;23.274;2023-07-13T03:33:39;95039.91;;;23.16;69.82
21011;BME280;10663;42.714;23.274;2023-07-13T03:35:11;95044.97;;;22.72;70.28
21011;BME280;10663;42.714;23.274;2023-07-13T03:36:41;95048.88;;;22.83;70.85
21011;BME280;10663;42.714;23.274;2023-07-13T03:38:15;95032.41;;;23.21;69.86
21011;BME280;10663;42.714;23.274;2023-07-13T03:39:46;95038.91;;;23.08;69.97
21011;BME280;10663;42.714;23.274;2023-07-13T03:41:18;95044.16;;;22.92;70.75
21011;BME280;10663;42.714;23.274;2023-07-13T03:42:50;95043.34;;;23.37;69.34
21011;BME280;10663;42.714;23.274;2023-07-13T03:44:22;95049.28;;;23.42;68.69
21011;BME280;10663;42.714;23.274;2023-07-13T03:45:57;95041.31;;;23.46;68.74
21011;BME280;10663;42.714;23.274;2023-07-13T03:47:28;95043.09;;;23.42;68.71
21011;BME280;10663;42.714;23.274;2023-07-13T03:48:59;95043.59;;;22.99;70.15
21011;BME280;10663;42.714;23.274;2023-07-13T03:50:30;95043.59;;;22.99;69.86
21011;BME280;10663;42.714;23.274;2023-07-13T03:52:00;95043.84;;;22.73;70.93
21011;BME280;10663;42.714;23.274;2023-07-13T03:53:31;95047.34;;;22.73;71.66
21011;BME280;10663;42.714;23.274;2023-07-13T03:55:02;95049.31;;;22.85;71.89
21011;BME280;10663;42.714;23.274;2023-07-13T03:56:33;95036.53;;;23.06;71.19
21011;BME280;10663;42.714;23.274;2023-07-13T03:59:56;95042.31;;;23.41;69.57
21011;BME280;10663;42.714;23.274;2023-07-13T04:01:27;95043.00;;;23.38;69.60
21011;BME280;10663;42.714;23.274;2023-07-13T04:02:57;95037.94;;;23.49;69.49
21011;BME280;10663;42.714;23.274;2023-07-13T04:04:28;95031.81;;;23.40;69.65
21011;BME280;10663;42.714;23.274;2023-07-13T04:05:59;95039.84;;;23.48;69.47
21011;BME280;10663;42.714;23.274;2023-07-13T04:07:30;95031.75;;;23.61;69.17
21011;BME280;10663;42.714;23.274;2023-07-13T04:09:02;95035.03;;;23.66;69.19
21011;BME280;10663;42.714;23.274;2023-07-13T04:10:35;95033.00;;;23.63;69.30
21011;BME280;10663;42.714;23.274;2023-07-13T04:12:06;95027.38;;;23.56;70.01
21011;BME280;10663;42.714;23.274;2023-07-13T04:13:37;95027.34;;;23.80;68.97
21011;BME280;10663;42.714;23.274;2023-07-13T04:15:08;95027.59;;;23.75;68.88
21011;BME280;10663;42.714;23.274;2023-07-13T04:16:38;95033.16;;;23.95;68.28
21011;BME280;10663;42.714;23.274;2023-07-13T04:18:09;95027.75;;;24.07;67.55
21011;BME280;10663;42.714;23.274;2023-07-13T04:19:40;95045.03;;;24.02;67.40
21011;BME280;10663;42.714;23.274;2023-07-13T04:21:11;95049.19;;;23.87;67.72
21011;BME280;10663;42.714;23.274;2023-07-13T04:22:42;95051.22;;;23.30;68.14
21011;BME280;10663;42.714;23.274;2023-07-13T04:24:12;95049.66;;;23.53;68.63
21011;BME280;10663;42.714;23.274;2023-07-13T04:25:44;95064.50;;;22.90;70.07
21011;BME280;10663;42.714;23.274;2023-07-13T04:27:14;95059.91;;;22.90;71.36
21011;BME280;10663;42.714;23.274;2023-07-13T04:28:45;95056.16;;;23.28;70.65
21011;BME280;10663;42.714;23.274;2023-07-13T04:30:16;95055.41;;;23.39;69.68
21011;BME280;10663;42.714;23.274;2023-07-13T04:31:46;95057.06;;;23.44;69.82
21011;BME280;10663;42.714;23.274;2023-07-13T04:33:17;95055.94;;;23.45;69.61
21011;BME280;10663;42.714;23.274;2023-07-13T04:34:48;95064.72;;;23.30;69.33
21011;BME280;10663;42.714;23.274;2023-07-13T04:36:24;95060.69;;;22.91;69.57
21011;BME280;10663;42.714;23.274;2023-07-13T04:37:57;95059.03;;;22.98;70.58
21011;BME280;10663;42.714;23.274;2023-07-13T04:39:28;95064.75;;;22.64;70.39
21011;BME280;10663;42.714;23.274;2023-07-13T04:40:59;95069.78;;;22.86;72.89
21011;BME280;10663;42.714;23.274;2023-07-13T04:42:31;95062.59;;;23.35;69.72
21011;BME280;10663;42.714;23.274;2023-07-13T04:44:02;95061.41;;;23.57;67.97
21011;BME280;10663;42.714;23.274;2023-07-13T04:45:33;95059.53;;;24.22;67.73
21011;BME280;10663;42.714;23.274;2023-07-13T04:47:05;95059.88;;;24.60;65.61
21011;BME280;10663;42.714;23.274;2023-07-13T04:48:36;95057.16;;;24.60;64.57
21011;BME280;10663;42.714;23.274;2023-07-13T04:50:07;95058.41;;;24.63;64.94
21011;BME280;10663;42.714;23.274;2023-07-13T04:51:38;95069.00;;;24.16;65.22
21011;BME280;10663;42.714;23.274;2023-07-13T04:53:10;95069.91;;;24.08;64.79
21011;BME280;10663;42.714;23.274;2023-07-13T04:54:41;95075.88;;;23.40;66.69
21011;BME280;10663;42.714;23.274;2023-07-13T04:56:11;95083.88;;;22.92;69.26
21011;BME280;10663;42.714;23.274;2023-07-13T04:57:42;95082.13;;;23.08;69.63
21011;BME280;10663;42.714;23.274;2023-07-13T04:59:13;95081.03;;;23.21;68.72
21011;BME280;10663;42.714;23.274;2023-07-13T05:00:43;95081.28;;;22.95;69.50
21011;BME280;10663;42.714;23.274;2023-07-13T05:02:14;95076.66;;;22.84;70.07
21011;BME280;10663;42.714;23.274;2023-07-13T05:03:45;95078.19;;;22.52;71.43
21011;BME280;10663;42.714;23.274;2023-07-13T05:05:15;95076.38;;;22.76;71.14
21011;BME280;10663;42.714;23.274;2023-07-13T05:06:46;95079.06;;;22.97;70.80
21011;BME280;10663;42.714;23.274;2023-07-13T05:08:17;95076.19;;;23.27;69.35
21011;BME280;10663;42.714;23.274;2023-07-13T05:09:47;95078.72;;;22.99;69.36
21011;BME280;10663;42.714;23.274;2023-07-13T05:11:18;95083.81;;;23.00;69.78
21011;BME280;10663;42.714;23.274;2023-07-13T05:12:49;95087.44;;;23.17;69.65
21011;BME280;10663;42.714;23.274;2023-07-13T05:14:20;95078.72;;;22.99;69.60
21011;BME280;10663;42.714;23.274;2023-07-13T05:16:01;95086.75;;;23.07;69.36
21011;BME280;10663;42.714;23.274;2023-07-13T05:17:33;95081.13;;;22.80;70.60
21011;BME280;10663;42.714;23.274;2023-07-13T05:19:04;95072.84;;;23.42;69.58
21011;BME280;10663;42.714;23.274;2023-07-13T05:20:34;95080.09;;;23.74;68.54
21011;BME280;10663;42.714;23.274;2023-07-13T05:22:05;95073.88;;;23.98;67.91
21011;BME280;10663;42.714;23.274;2023-07-13T05:23:36;95077.44;;;24.14;67.44
21011;BME280;10663;42.714;23.274;2023-07-13T05:25:07;95077.13;;;24.28;65.92
21011;BME280;10663;42.714;23.274;2023-07-13T05:26:38;95076.56;;;24.22;65.54
21011;BME280;10663;42.714;23.274;2023-07-13T05:28:08;95083.03;;;24.58;65.39
21011;BME280;10663;42.714;23.274;2023-07-13T05:29:39;95082.38;;;24.77;64.45
21011;BME280;10663;42.714;23.274;2023-07-13T05:31:10;95081.09;;;25.14;63.31
21011;BME280;10663;42.714;23.274;2023-07-13T05:32:41;95083.91;;;25.18;63.21
21011;BME280;10663;42.714;23.274;2023-07-13T05:34:11;95088.00;;;25.12;62.62
21011;BME280;10663;42.714;23.274;2023-07-13T05:35:42;95090.19;;;25.06;62.35
21011;BME280;10663;42.714;23.274;2023-07-13T05:37:13;95088.59;;;25.05;62.64
21011;BME280;10663;42.714;23.274;2023-07-13T05:38:44;95091.44;;;25.24;62.46
21011;BME280;10663;42.714;23.274;2023-07-13T05:40:14;95091.13;;;25.57;61.19
21011;BME280;10663;42.714;23.274;2023-07-13T05:41:45;95090.09;;;25.62;60.84
21011;BME280;10663;42.714;23.274;2023-07-13T05:43:16;95085.63;;;25.85;60.33
21011;BME280;10663;42.714;23.274;2023-07-13T05:44:47;95090.78;;;25.90;59.66
21011;BME280;10663;42.714;23.274;2023-07-13T05:46:17;95083.06;;;25.92;59.41
21011;BME280;10663;42.714;23.274;2023-07-13T05:47:48;95093.47;;;25.90;59.33
21011;BME280;10663;42.714;23.274;2023-07-13T05:49:19;95094.47;;;25.82;59.02
21011;BME280;10663;42.714;23.274;2023-07-13T05:50:50;95097.41;;;26.08;59.24
21011;BME280;10663;42.714;23.274;2023-07-13T05:52:21;95091.72;;;25.98;58.81
21011;BME280;10663;42.714;23.274;2023-07-13T05:53:52;95086.19;;;26.10;59.58
21011;BME280;10663;42.714;23.274;2023-07-13T05:55:22;95085.75;;;26.08;59.10
21011;BME280;10663;42.714;23.274;2023-07-13T05:56:53;95085.06;;;25.95;58.54
21011;BME280;10663;42.714;23.274;2023-07-13T05:58:24;95070.38;;;25.81;58.30
21011;BME280;10663;42.714;23.274;2023-07-13T05:59:55;95079.31;;;25.81;59.04
21011;BME280;10663;42.714;23.274;2023-07-13T06:01:25;95070.91;;;25.70;59.65
21011;BME280;10663;42.714;23.274;2023-07-13T06:02:56;95075.38;;;25.63;59.31
21011;BME280;10663;42.714;23.274;2023-07-13T06:04:29;95073.72;;;25.58;60.46
21011;BME280;10663;42.714;23.274;2023-07-13T06:05:59;95078.19;;;25.66;59.73
21011;BME280;10663;42.714;23.274;2023-07-13T06:07:30;95087.13;;;25.67;60.50
21011;BME280;10663;42.714;23.274;2023-07-13T06:09:01;95088.16;;;25.78;60.04
21011;BME280;10663;42.714;23.274;2023-07-13T06:10:32;95088.31;;;26.01;59.70
21011;BME280;10663;42.714;23.274;2023-07-13T06:12:03;95090.84;;;26.09;59.82
21011;BME280;10663;42.714;23.274;2023-07-13T06:13:34;95094.19;;;26.03;59.83
21011;BME280;10663;42.714;23.274;2023-07-13T06:15:05;95091.53;;;26.06;59.99
21011;BME280;10663;42.714;23.274;2023-07-13T06:16:36;95086.50;;;25.74;59.29
21011;BME280;10663;42.714;23.274;2023-07-13T06:18:07;95085.97;;;25.84;60.58
21011;BME280;10663;42.714;23.274;2023-07-13T06:19:37;95086.16;;;25.75;59.18
21011;BME280;10663;42.714;23.274;2023-07-13T06:21:09;95087.41;;;25.34;58.58
21011;BME280;10663;42.714;23.274;2023-07-13T06:22:40;95094.38;;;25.94;58.54
21011;BME280;10663;42.714;23.274;2023-07-13T06:24:11;95102.72;;;26.21;57.35
21011;BME280;10663;42.714;23.274;2023-07-13T06:25:42;95098.97;;;26.09;57.11
21011;BME280;10663;42.714;23.274;2023-07-13T06:27:13;95098.16;;;26.25;57.42
21011;BME280;10663;42.714;23.274;2023-07-13T06:28:44;95094.53;;;26.01;57.30
21011;BME280;10663;42.714;23.274;2023-07-13T06:30:15;95089.47;;;26.35;57.06
21011;BME280;10663;42.714;23.274;2023-07-13T06:31:46;95088.47;;;26.08;56.13
21011;BME280;10663;42.714;23.274;2023-07-13T06:33:17;95090.00;;;26.25;56.74
21011;BME280;10663;42.714;23.274;2023-07-13T06:34:48;95084.56;;;26.60;56.16
21011;BME280;10663;42.714;23.274;2023-07-13T06:36:18;95079.34;;;26.70;55.52
21011;BME280;10663;42.714;23.274;2023-07-13T06:37:49;95083.94;;;26.47;56.42
21011;BME280;10663;42.714;23.274;2023-07-13T06:39:20;95091.78;;;26.71;55.75
21011;BME280;10663;42.714;23.274;2023-07-13T06:40:50;95085.31;;;26.76;55.76
21011;BME280;10663;42.714;23.274;2023-07-13T06:42:21;95074.47;;;26.79;55.76
21011;BME280;10663;42.714;23.274;2023-07-13T06:43:52;95074.13;;;26.81;54.65
21011;BME280;10663;42.714;23.274;2023-07-13T06:45:23;95074.69;;;26.90;54.07
21011;BME280;10663;42.714;23.274;2023-07-13T06:46:54;95081.56;;;26.84;54.69
21011;BME280;10663;42.714;23.274;2023-07-13T06:48:25;95087.19;;;26.91;54.50
21011;BME280;10663;42.714;23.274;2023-07-13T06:49:55;95073.34;;;27.00;54.08
21011;BME280;10663;42.714;23.274;2023-07-13T06:51:26;95074.38;;;26.92;54.52
21011;BME280;10663;42.714;23.274;2023-07-13T06:52:57;95071.19;;;27.09;54.02
21011;BME280;10663;42.714;23.274;2023-07-13T06:54:29;95078.66;;;26.93;53.27
21011;BME280;10663;42.714;23.274;2023-07-13T06:56:00;95079.66;;;27.04;54.26
21011;BME280;10663;42.714;23.274;2023-07-13T06:57:31;95077.28;;;26.83;54.01
21011;BME280;10663;42.714;23.274;2023-07-13T06:59:02;95094.63;;;26.59;53.03
21011;BME280;10663;42.714;23.274;2023-07-13T07:00:32;95087.34;;;26.63;53.43
21011;BME280;10663;42.714;23.274;2023-07-13T07:02:03;95084.59;;;26.98;52.91
21011;BME280;10663;42.714;23.274;2023-07-13T07:03:34;95085.22;;;27.11;52.99
21011;BME280;10663;42.714;23.274;2023-07-13T07:05:05;95082.84;;;26.90;53.58
21011;BME280;10663;42.714;23.274;2023-07-13T07:06:36;95071.41;;;26.81;53.24
21011;BME280;10663;42.714;23.274;2023-07-13T07:08:06;95080.00;;;26.64;53.04
21011;BME280;10663;42.714;23.274;2023-07-13T07:09:37;95081.22;;;27.05;52.66
21011;BME280;10663;42.714;23.274;2023-07-13T07:11:09;95078.28;;;27.36;51.78
21011;BME280;10663;42.714;23.274;2023-07-13T07:12:40;95066.34;;;27.64;50.99
21011;BME280;10663;42.714;23.274;2023-07-13T07:14:11;95069.97;;;27.98;50.86
21011;BME280;10663;42.714;23.274;2023-07-13T07:15:41;95065.22;;;27.91;50.14
21011;BME280;10663;42.714;23.274;2023-07-13T07:17:12;95064.09;;;27.46;50.39
21011;BME280;10663;42.714;23.274;2023-07-13T07:18:43;95064.94;;;27.28;51.81
21011;BME280;10663;42.714;23.274;2023-07-13T07:20:13;95062.66;;;27.75;49.49
21011;BME280;10663;42.714;23.274;2023-07-13T07:21:44;95068.31;;;27.89;49.93
21011;BME280;10663;42.714;23.274;2023-07-13T07:23:15;95071.09;;;27.93;50.21
21011;BME280;10663;42.714;23.274;2023-07-13T07:24:46;95066.63;;;28.08;50.25
21011;BME280;10663;42.714;23.274;2023-07-13T07:26:17;95071.84;;;28.16;50.15
21011;BME280;10663;42.714;23.274;2023-07-13T07:27:47;95068.63;;;28.37;49.94
21011;BME280;10663;42.714;23.274;2023-07-13T07:29:18;95065.72;;;28.23;50.39
21011;BME280;10663;42.714;23.274;2023-07-13T07:30:49;95055.31;;;28.58;49.92
21011;BME280;10663;42.714;23.274;2023-07-13T07:32:22;95064.84;;;28.45;49.69
21011;BME280;10663;42.714;23.274;2023-07-13T07:33:53;95050.44;;;28.45;50.17
21011;BME280;10663;42.714;23.274;2023-07-13T07:35:24;95051.28;;;28.49;49.94
21011;BME280;10663;42.714;23.274;2023-07-13T07:37:00;95048.63;;;28.56;49.61
21011;BME280;10663;42.714;23.274;2023-07-13T07:38:34;95049.50;;;28.93;49.26
21011;BME280;10663;42.714;23.274;2023-07-13T07:40:04;95051.72;;;28.54;49.31
21011;BME280;10663;42.714;23.274;2023-07-13T07:41:36;95043.34;;;28.70;49.34
21011;BME280;10663;42.714;23.274;2023-07-13T07:43:10;95042.84;;;29.28;48.13
21011;BME280;10663;42.714;23.274;2023-07-13T07:44:41;95043.06;;;29.12;48.64
21011;BME280;10663;42.714;23.274;2023-07-13T07:46:12;95046.06;;;29.00;49.22
21011;BME280;10663;42.714;23.274;2023-07-13T07:47:42;95043.09;;;29.16;49.54
21011;BME280;10663;42.714;23.274;2023-07-13T07:49:13;95047.06;;;29.62;48.75
21011;BME280;10663;42.714;23.274;2023-07-13T07:50:44;95044.91;;;29.38;48.76
21011;BME280;10663;42.714;23.274;2023-07-13T07:52:14;95049.09;;;29.72;47.60
21011;BME280;10663;42.714;23.274;2023-07-13T07:53:45;95042.09;;;29.78;47.58
21011;BME280;10663;42.714;23.274;2023-07-13T07:55:16;95033.44;;;29.66;47.25
21011;BME280;10663;42.714;23.274;2023-07-13T07:56:47;95028.88;;;29.81;47.54
21011;BME280;10663;42.714;23.274;2023-07-13T07:58:17;95031.03;;;29.17;49.13
21011;BME280;10663;42.714;23.274;2023-07-13T07:59:48;95033.75;;;29.17;49.33
21011;BME280;10663;42.714;23.274;2023-07-13T08:01:19;95028.84;;;28.92;50.94
21011;BME280;10663;42.714;23.274;2023-07-13T08:02:49;95028.47;;;28.94;50.24
21011;BME280;10663;42.714;23.274;2023-07-13T08:04:21;95015.59;;;29.31;48.72
21011;BME280;10663;42.714;23.274;2023-07-13T08:05:54;95030.66;;;29.59;48.13
21011;BME280;10663;42.714;23.274;2023-07-13T08:07:25;95019.19;;;29.90;47.92
21011;BME280;10663;42.714;23.274;2023-07-13T08:08:56;95012.75;;;29.65;47.70